sensor_id;sensor_type;location;lat;lon;timestamp;pressure;altitude;pressure_sealevel;temperature;humidity
61018;BME280;48171;51.550;5.434;2022-12-18T00:02:19;102865.75;;;-4.32;92.25
61018;BME280;48171;51.550;5.434;2022-12-18T00:04:44;102866.16;;;-4.38;91.84
61018;BME280;48171;51.550;5.434;2022-12-18T00:07:10;102875.69;;;-4.37;91.46
61018;BME280;48171;51.550;5.434;2022-12-18T00:09:35;102870.00;;;-4.43;90.88
61018;BME280;48171;51.550;5.434;2022-12-18T00:12:00;102880.84;;;-4.47;90.74
61018;BME280;48171;51.550;5.434;2022-12-18T00:14:26;102877.59;;;-4.55;89.77
61018;BME280;48171;51.550;5.434;2022-12-18T00:16:51;102868.81;;;-4.57;90.54
61018;BME280;48171;51.550;5.434;2022-12-18T00:19:16;102853.84;;;-4.61;90.64
61018;BME280;48171;51.550;5.434;2022-12-18T00:21:42;102842.25;;;-4.66;90.49
61018;BME280;48171;51.550;5.434;2022-12-18T00:24:10;102849.06;;;-4.67;90.01
61018;BME280;48171;51.550;5.434;2022-12-18T00:26:36;102848.53;;;-4.73;90.07
61018;BME280;48171;51.550;5.434;2022-12-18T00:29:09;102837.03;;;-4.87;90.05
61018;BME280;48171;51.550;5.434;2022-12-18T00:31:35;102816.63;;;-4.94;90.80
61018;BME280;48171;51.550;5.434;2022-12-18T00:34:02;102823.84;;;-4.90;91.67
61018;BME280;48171;51.550;5.434;2022-12-18T00:36:31;102824.66;;;-4.91;92.48
61018;BME280;48171;51.550;5.434;2022-12-18T00:38:58;102831.88;;;-4.87;92.58
61018;BME280;48171;51.550;5.434;2022-12-18T00:41:24;102831.88;;;-4.87;92.63
61018;BME280;48171;51.550;5.434;2022-12-18T00:44:10;102813.75;;;-4.97;92.54
61018;BME280;48171;51.550;5.434;2022-12-18T00:46:36;102814.94;;;-4.93;92.37
61018;BME280;48171;51.550;5.434;2022-12-18T00:49:02;102814.81;;;-4.95;92.47
61018;BME280;48171;51.550;5.434;2022-12-18T00:51:27;102831.72;;;-4.88;92.57
61018;BME280;48171;51.550;5.434;2022-12-18T00:53:52;102822.97;;;-4.90;92.66
61018;BME280;48171;51.550;5.434;2022-12-18T00:56:18;102817.53;;;-4.93;92.44
61018;BME280;48171;51.550;5.434;2022-12-18T00:58:43;102803.34;;;-4.98;92.54
61018;BME280;48171;51.550;5.434;2022-12-18T01:01:08;102819.84;;;-4.96;91.68
61018;BME280;48171;51.550;5.434;2022-12-18T01:03:34;102818.00;;;-5.08;91.62
61018;BME280;48171;51.550;5.434;2022-12-18T01:05:59;102839.16;;;-5.02;91.89
61018;BME280;48171;51.550;5.434;2022-12-18T01:08:24;102842.22;;;-5.06;92.16
61018;BME280;48171;51.550;5.434;2022-12-18T01:10:50;102846.34;;;-5.08;92.32
61018;BME280;48171;51.550;5.434;2022-12-18T01:13:15;102859.38;;;-5.06;92.47
61018;BME280;48171;51.550;5.434;2022-12-18T01:15:47;102851.34;;;-5.09;92.80
61018;BME280;48171;51.550;5.434;2022-12-18T01:18:12;102848.16;;;-5.07;92.94
61018;BME280;48171;51.550;5.434;2022-12-18T01:20:37;102861.31;;;-5.04;92.58
61018;BME280;48171;51.550;5.434;2022-12-18T01:23:03;102852.13;;;-5.10;92.97
61018;BME280;48171;51.550;5.434;2022-12-18T01:25:28;102860.75;;;-5.10;92.66
61018;BME280;48171;51.550;5.434;2022-12-18T01:27:53;102847.72;;;-5.11;92.77
61018;BME280;48171;51.550;5.434;2022-12-18T01:30:18;102853.03;;;-5.10;92.73
61018;BME280;48171;51.550;5.434;2022-12-18T01:32:44;102842.19;;;-5.16;92.33
61018;BME280;48171;51.550;5.434;2022-12-18T01:35:09;102855.47;;;-5.11;92.62
61018;BME280;48171;51.550;5.434;2022-12-18T01:37:34;102836.78;;;-5.19;92.35
61018;BME280;48171;51.550;5.434;2022-12-18T01:40:00;102834.53;;;-5.25;92.45
61018;BME280;48171;51.550;5.434;2022-12-18T01:42:25;102827.56;;;-5.26;92.89
61018;BME280;48171;51.550;5.434;2022-12-18T01:45:06;102846.44;;;-5.16;92.86
61018;BME280;48171;51.550;5.434;2022-12-18T01:50:09;102830.44;;;-5.23;92.18
61018;BME280;48171;51.550;5.434;2022-12-18T01:52:35;102831.78;;;-5.36;91.25
61018;BME280;48171;51.550;5.434;2022-12-18T01:55:04;102849.94;;;-5.35;90.98
61018;BME280;48171;51.550;5.434;2022-12-18T01:57:30;102840.00;;;-5.40;90.93
61018;BME280;48171;51.550;5.434;2022-12-18T02:00:00;102830.53;;;-5.50;90.62
61018;BME280;48171;51.550;5.434;2022-12-18T02:02:27;102825.88;;;-5.54;91.00
61018;BME280;48171;51.550;5.434;2022-12-18T02:04:53;102827.81;;;-5.52;91.25
61018;BME280;48171;51.550;5.434;2022-12-18T02:07:40;102825.13;;;-5.53;91.74
61018;BME280;48171;51.550;5.434;2022-12-18T02:10:30;102826.56;;;-5.47;92.24
61018;BME280;48171;51.550;5.434;2022-12-18T02:13:15;102829.91;;;-5.48;92.47
61018;BME280;48171;51.550;5.434;2022-12-18T02:16:04;102829.28;;;-5.45;92.52
61018;BME280;48171;51.550;5.434;2022-12-18T02:18:38;102823.22;;;-5.46;92.57
61018;BME280;48171;51.550;5.434;2022-12-18T02:21:12;102824.13;;;-5.45;92.20
61018;BME280;48171;51.550;5.434;2022-12-18T02:23:58;102824.00;;;-5.47;92.20
61018;BME280;48171;51.550;5.434;2022-12-18T02:26:40;102830.53;;;-5.50;91.42
61018;BME280;48171;51.550;5.434;2022-12-18T02:29:12;102812.03;;;-5.65;91.22
61018;BME280;48171;51.550;5.434;2022-12-18T02:31:43;102826.38;;;-5.58;90.76
61018;BME280;48171;51.550;5.434;2022-12-18T02:34:11;102815.50;;;-5.65;90.93
61018;BME280;48171;51.550;5.434;2022-12-18T02:36:39;102816.16;;;-5.67;91.22
61018;BME280;48171;51.550;5.434;2022-12-18T02:39:09;102823.09;;;-5.66;91.26
61018;BME280;48171;51.550;5.434;2022-12-18T02:41:35;102804.75;;;-5.79;91.35
61018;BME280;48171;51.550;5.434;2022-12-18T02:44:07;102832.00;;;-5.63;91.98
61018;BME280;48171;51.550;5.434;2022-12-18T02:46:45;102810.38;;;-5.65;92.09
61018;BME280;48171;51.550;5.434;2022-12-18T02:49:21;102804.19;;;-5.67;92.32
61018;BME280;48171;51.550;5.434;2022-12-18T02:57:15;102805.22;;;-5.65;92.00
61018;BME280;48171;51.550;5.434;2022-12-18T02:59:56;102796.03;;;-5.71;92.24
61018;BME280;48171;51.550;5.434;2022-12-18T03:02:39;102802.63;;;-5.65;92.34
61018;BME280;48171;51.550;5.434;2022-12-18T03:05:16;102796.94;;;-5.71;92.20
61018;BME280;48171;51.550;5.434;2022-12-18T03:08:06;102795.56;;;-5.67;92.28
61018;BME280;48171;51.550;5.434;2022-12-18T03:10:38;102787.41;;;-5.72;92.50
61018;BME280;48171;51.550;5.434;2022-12-18T03:13:11;102779.97;;;-5.69;92.60
61018;BME280;48171;51.550;5.434;2022-12-18T03:15:47;102780.72;;;-5.70;92.42
61018;BME280;48171;51.550;5.434;2022-12-18T03:18:23;102765.00;;;-5.73;92.17
61018;BME280;48171;51.550;5.434;2022-12-18T03:20:52;102781.91;;;-5.66;92.19
61018;BME280;48171;51.550;5.434;2022-12-18T03:23:21;102778.03;;;-5.71;92.16
61018;BME280;48171;51.550;5.434;2022-12-18T03:25:51;102789.47;;;-5.68;92.28
61018;BME280;48171;51.550;5.434;2022-12-18T03:28:20;102794.50;;;-5.69;92.13
61018;BME280;48171;51.550;5.434;2022-12-18T03:30:47;102775.50;;;-5.80;92.19
61018;BME280;48171;51.550;5.434;2022-12-18T03:33:42;102775.38;;;-5.81;92.02
61018;BME280;48171;51.550;5.434;2022-12-18T03:36:09;102801.94;;;-5.72;91.93
61018;BME280;48171;51.550;5.434;2022-12-18T03:38:34;102787.13;;;-5.75;92.25
61018;BME280;48171;51.550;5.434;2022-12-18T03:41:11;102786.09;;;-5.77;91.88
61018;BME280;48171;51.550;5.434;2022-12-18T03:46:30;102790.94;;;-5.80;91.79
61018;BME280;48171;51.550;5.434;2022-12-18T03:49:34;102784.75;;;-5.82;91.85
61018;BME280;48171;51.550;5.434;2022-12-18T03:52:06;102771.47;;;-5.87;91.73
61018;BME280;48171;51.550;5.434;2022-12-18T03:54:33;102757.81;;;-5.96;91.13
61018;BME280;48171;51.550;5.434;2022-12-18T03:57:21;102766.53;;;-5.94;90.86
61018;BME280;48171;51.550;5.434;2022-12-18T03:59:50;102765.91;;;-6.01;90.61
61018;BME280;48171;51.550;5.434;2022-12-18T04:02:18;102741.88;;;-6.11;90.77
61018;BME280;48171;51.550;5.434;2022-12-18T04:04:44;102736.59;;;-6.12;90.96
61018;BME280;48171;51.550;5.434;2022-12-18T04:07:13;102745.25;;;-6.12;91.23
61018;BME280;48171;51.550;5.434;2022-12-18T04:09:40;102733.13;;;-6.13;91.62
61018;BME280;48171;51.550;5.434;2022-12-18T04:12:08;102733.44;;;-6.10;91.73
61018;BME280;48171;51.550;5.434;2022-12-18T04:14:33;102732.63;;;-6.09;91.57
61018;BME280;48171;51.550;5.434;2022-12-18T04:17:01;102743.22;;;-6.06;91.42
61018;BME280;48171;51.550;5.434;2022-12-18T04:19:26;102733.53;;;-6.08;91.42
61018;BME280;48171;51.550;5.434;2022-12-18T04:21:51;102727.97;;;-6.13;91.56
61018;BME280;48171;51.550;5.434;2022-12-18T04:24:17;102724.22;;;-6.16;91.52
61018;BME280;48171;51.550;5.434;2022-12-18T04:26:42;102717.53;;;-6.14;91.90
61018;BME280;48171;51.550;5.434;2022-12-18T04:29:07;102724.66;;;-6.12;91.92
61018;BME280;48171;51.550;5.434;2022-12-18T04:31:33;102721.16;;;-6.12;91.82
61018;BME280;48171;51.550;5.434;2022-12-18T04:33:58;102723.72;;;-6.12;91.79
61018;BME280;48171;51.550;5.434;2022-12-18T04:36:23;102725.41;;;-6.13;91.97
61018;BME280;48171;51.550;5.434;2022-12-18T04:38:48;102731.03;;;-6.17;91.75
61018;BME280;48171;51.550;5.434;2022-12-18T04:41:14;102731.69;;;-6.19;91.68
61018;BME280;48171;51.550;5.434;2022-12-18T04:43:39;102729.75;;;-6.22;91.30
61018;BME280;48171;51.550;5.434;2022-12-18T04:46:06;102753.56;;;-6.14;91.29
61018;BME280;48171;51.550;5.434;2022-12-18T04:48:31;102746.97;;;-6.21;91.62
61018;BME280;48171;51.550;5.434;2022-12-18T04:50:57;102753.78;;;-6.21;91.13
61018;BME280;48171;51.550;5.434;2022-12-18T04:53:22;102762.88;;;-6.25;90.62
61018;BME280;48171;51.550;5.434;2022-12-18T04:55:48;102774.22;;;-6.23;90.19
61018;BME280;48171;51.550;5.434;2022-12-18T04:58:13;102766.84;;;-6.29;90.32
61018;BME280;48171;51.550;5.434;2022-12-18T05:00:38;102771.97;;;-6.29;89.95
61018;BME280;48171;51.550;5.434;2022-12-18T05:03:03;102762.03;;;-6.34;90.61
61018;BME280;48171;51.550;5.434;2022-12-18T05:05:29;102779.06;;;-6.26;90.37
61018;BME280;48171;51.550;5.434;2022-12-18T05:07:54;102766.09;;;-6.28;90.26
61018;BME280;48171;51.550;5.434;2022-12-18T05:10:19;102771.34;;;-6.26;89.72
61018;BME280;48171;51.550;5.434;2022-12-18T05:12:44;102768.34;;;-6.31;90.07
61018;BME280;48171;51.550;5.434;2022-12-18T05:15:29;102785.13;;;-6.26;89.50
61018;BME280;48171;51.550;5.434;2022-12-18T05:17:55;102779.53;;;-6.30;88.85
61018;BME280;48171;51.550;5.434;2022-12-18T05:20:20;102773.84;;;-6.36;88.71
61018;BME280;48171;51.550;5.434;2022-12-18T05:22:46;102770.38;;;-6.37;88.88
61018;BME280;48171;51.550;5.434;2022-12-18T05:25:11;102770.03;;;-6.31;89.15
61018;BME280;48171;51.550;5.434;2022-12-18T05:27:36;102761.59;;;-6.39;88.67
61018;BME280;48171;51.550;5.434;2022-12-18T05:30:02;102749.66;;;-6.38;88.63
61018;BME280;48171;51.550;5.434;2022-12-18T05:32:27;102767.94;;;-6.35;88.46
61018;BME280;48171;51.550;5.434;2022-12-18T05:34:53;102769.47;;;-6.37;87.81
61018;BME280;48171;51.550;5.434;2022-12-18T05:37:18;102758.31;;;-6.47;87.99
61018;BME280;48171;51.550;5.434;2022-12-18T05:39:43;102766.19;;;-6.45;88.09
61018;BME280;48171;51.550;5.434;2022-12-18T05:42:09;102755.19;;;-6.53;87.78
61018;BME280;48171;51.550;5.434;2022-12-18T05:44:34;102749.44;;;-6.50;88.39
61018;BME280;48171;51.550;5.434;2022-12-18T05:47:00;102748.81;;;-6.48;88.90
61018;BME280;48171;51.550;5.434;2022-12-18T05:49:25;102741.66;;;-6.41;89.70
61018;BME280;48171;51.550;5.434;2022-12-18T05:51:51;102745.84;;;-6.33;90.25
61018;BME280;48171;51.550;5.434;2022-12-18T05:54:16;102737.09;;;-6.35;90.61
61018;BME280;48171;51.550;5.434;2022-12-18T05:56:41;102745.03;;;-6.24;90.52
61018;BME280;48171;51.550;5.434;2022-12-18T05:59:06;102748.00;;;-6.19;90.85
61018;BME280;48171;51.550;5.434;2022-12-18T06:01:32;102736.53;;;-6.22;90.55
61018;BME280;48171;51.550;5.434;2022-12-18T06:03:57;102734.75;;;-6.24;90.64
61018;BME280;48171;51.550;5.434;2022-12-18T06:06:24;102733.06;;;-6.23;90.54
61018;BME280;48171;51.550;5.434;2022-12-18T06:08:52;102743.66;;;-6.20;90.78
61018;BME280;48171;51.550;5.434;2022-12-18T06:11:21;102739.25;;;-6.21;90.82
61018;BME280;48171;51.550;5.434;2022-12-18T06:13:50;102738.50;;;-6.20;90.71
61018;BME280;48171;51.550;5.434;2022-12-18T06:16:15;102731.38;;;-6.22;90.66
61018;BME280;48171;51.550;5.434;2022-12-18T06:18:41;102731.25;;;-6.24;90.26
61018;BME280;48171;51.550;5.434;2022-12-18T06:21:06;102739.91;;;-6.32;89.15
61018;BME280;48171;51.550;5.434;2022-12-18T06:23:31;102753.41;;;-6.35;88.77
61018;BME280;48171;51.550;5.434;2022-12-18T06:25:57;102749.38;;;-6.41;89.23
61018;BME280;48171;51.550;5.434;2022-12-18T06:28:22;102752.91;;;-6.50;89.38
61018;BME280;48171;51.550;5.434;2022-12-18T06:30:48;102738.88;;;-6.53;89.68
61018;BME280;48171;51.550;5.434;2022-12-18T06:33:14;102751.97;;;-6.41;89.58
61018;BME280;48171;51.550;5.434;2022-12-18T06:35:40;102737.75;;;-6.47;89.47
61018;BME280;48171;51.550;5.434;2022-12-18T06:38:05;102745.47;;;-6.47;88.96
61018;BME280;48171;51.550;5.434;2022-12-18T06:40:31;102753.06;;;-6.48;88.67
61018;BME280;48171;51.550;5.434;2022-12-18T06:42:57;102741.09;;;-6.48;88.92
61018;BME280;48171;51.550;5.434;2022-12-18T06:45:22;102719.97;;;-6.54;88.91
61018;BME280;48171;51.550;5.434;2022-12-18T06:47:48;102725.53;;;-6.49;89.43
61018;BME280;48171;51.550;5.434;2022-12-18T06:50:13;102726.91;;;-6.53;89.66
61018;BME280;48171;51.550;5.434;2022-12-18T06:52:39;102721.97;;;-6.60;89.83
61018;BME280;48171;51.550;5.434;2022-12-18T06:55:09;102717.59;;;-6.61;89.60
61018;BME280;48171;51.550;5.434;2022-12-18T06:57:34;102707.50;;;-6.68;89.04
61018;BME280;48171;51.550;5.434;2022-12-18T07:00:00;102732.13;;;-6.61;89.47
61018;BME280;48171;51.550;5.434;2022-12-18T07:02:25;102708.88;;;-6.72;89.59
61018;BME280;48171;51.550;5.434;2022-12-18T07:04:50;102717.78;;;-6.68;89.83
61018;BME280;48171;51.550;5.434;2022-12-18T07:07:16;102731.81;;;-6.65;89.88
61018;BME280;48171;51.550;5.434;2022-12-18T07:09:41;102727.31;;;-6.67;90.19
61018;BME280;48171;51.550;5.434;2022-12-18T07:12:06;102718.41;;;-6.71;90.22
61018;BME280;48171;51.550;5.434;2022-12-18T07:14:32;102699.25;;;-6.74;90.46
61018;BME280;48171;51.550;5.434;2022-12-18T07:16:58;102696.78;;;-6.73;90.82
61018;BME280;48171;51.550;5.434;2022-12-18T07:19:23;102717.03;;;-6.67;91.08
61018;BME280;48171;51.550;5.434;2022-12-18T07:21:50;102702.38;;;-6.68;91.39
61018;BME280;48171;51.550;5.434;2022-12-18T07:24:15;102676.84;;;-6.75;91.25
61018;BME280;48171;51.550;5.434;2022-12-18T07:26:40;102674.69;;;-6.71;91.46
61018;BME280;48171;51.550;5.434;2022-12-18T07:29:06;102670.75;;;-6.67;91.54
61018;BME280;48171;51.550;5.434;2022-12-18T07:31:31;102666.38;;;-6.68;91.81
61018;BME280;48171;51.550;5.434;2022-12-18T07:33:56;102660.63;;;-6.66;92.17
61018;BME280;48171;51.550;5.434;2022-12-18T07:36:21;102669.53;;;-6.62;92.64
61018;BME280;48171;51.550;5.434;2022-12-18T07:38:48;102655.34;;;-6.67;92.80
61018;BME280;48171;51.550;5.434;2022-12-18T07:41:14;102644.31;;;-6.66;92.93
61018;BME280;48171;51.550;5.434;2022-12-18T07:43:41;102659.16;;;-6.53;93.12
61018;BME280;48171;51.550;5.434;2022-12-18T07:46:07;102650.72;;;-6.52;93.22
61018;BME280;48171;51.550;5.434;2022-12-18T07:48:33;102645.56;;;-6.52;93.39
61018;BME280;48171;51.550;5.434;2022-12-18T07:51:04;102632.81;;;-6.51;93.37
61018;BME280;48171;51.550;5.434;2022-12-18T07:53:31;102632.63;;;-6.44;93.69
61018;BME280;48171;51.550;5.434;2022-12-18T07:55:57;102619.91;;;-6.42;93.54
61018;BME280;48171;51.550;5.434;2022-12-18T07:58:23;102620.19;;;-6.39;93.74
61018;BME280;48171;51.550;5.434;2022-12-18T08:00:48;102622.00;;;-6.38;93.72
61018;BME280;48171;51.550;5.434;2022-12-18T08:03:13;102606.13;;;-6.43;93.81
61018;BME280;48171;51.550;5.434;2022-12-18T08:05:38;102636.94;;;-6.34;94.24
61018;BME280;48171;51.550;5.434;2022-12-18T08:08:04;102625.72;;;-6.34;94.27
61018;BME280;48171;51.550;5.434;2022-12-18T08:10:29;102642.88;;;-6.25;94.55
61018;BME280;48171;51.550;5.434;2022-12-18T08:12:55;102642.28;;;-6.22;94.54
61018;BME280;48171;51.550;5.434;2022-12-18T08:15:20;102632.25;;;-6.19;94.72
61018;BME280;48171;51.550;5.434;2022-12-18T08:17:45;102616.56;;;-6.22;94.97
61018;BME280;48171;51.550;5.434;2022-12-18T08:20:11;102636.28;;;-6.12;94.83
61018;BME280;48171;51.550;5.434;2022-12-18T08:22:37;102628.94;;;-6.18;94.97
61018;BME280;48171;51.550;5.434;2022-12-18T08:25:03;102650.59;;;-6.06;95.12
61018;BME280;48171;51.550;5.434;2022-12-18T08:27:28;102644.53;;;-6.06;95.40
61018;BME280;48171;51.550;5.434;2022-12-18T08:29:54;102646.50;;;-6.04;95.17
61018;BME280;48171;51.550;5.434;2022-12-18T08:32:20;102646.41;;;-5.95;95.39
61018;BME280;48171;51.550;5.434;2022-12-18T08:34:45;102634.19;;;-5.97;95.34
61018;BME280;48171;51.550;5.434;2022-12-18T08:37:10;102641.63;;;-5.90;95.46
61018;BME280;48171;51.550;5.434;2022-12-18T08:39:36;102640.09;;;-5.88;95.54
61018;BME280;48171;51.550;5.434;2022-12-18T08:42:01;102636.25;;;-5.83;95.60
61018;BME280;48171;51.550;5.434;2022-12-18T08:44:45;102619.53;;;-5.78;95.97
61018;BME280;48171;51.550;5.434;2022-12-18T08:47:10;102626.00;;;-5.73;95.61
61018;BME280;48171;51.550;5.434;2022-12-18T08:49:35;102619.44;;;-5.69;95.83
61018;BME280;48171;51.550;5.434;2022-12-18T08:52:01;102595.84;;;-5.74;95.83
61018;BME280;48171;51.550;5.434;2022-12-18T08:54:27;102613.28;;;-5.61;96.12
61018;BME280;48171;51.550;5.434;2022-12-18T08:56:53;102593.06;;;-5.67;96.23
61018;BME280;48171;51.550;5.434;2022-12-18T08:59:18;102613.19;;;-5.52;96.52
61018;BME280;48171;51.550;5.434;2022-12-18T09:01:45;102613.47;;;-5.49;96.68
61018;BME280;48171;51.550;5.434;2022-12-18T09:04:10;102608.56;;;-5.46;96.76
61018;BME280;48171;51.550;5.434;2022-12-18T09:06:36;102608.94;;;-5.42;96.79
61018;BME280;48171;51.550;5.434;2022-12-18T09:09:03;102604.44;;;-5.44;97.02
61018;BME280;48171;51.550;5.434;2022-12-18T09:11:31;102630.50;;;-5.31;97.09
61018;BME280;48171;51.550;5.434;2022-12-18T09:13:59;102624.56;;;-5.30;97.15
61018;BME280;48171;51.550;5.434;2022-12-18T09:16:25;102621.31;;;-5.27;96.89
61018;BME280;48171;51.550;5.434;2022-12-18T09:18:51;102623.53;;;-5.22;97.06
61018;BME280;48171;51.550;5.434;2022-12-18T09:21:19;102632.19;;;-5.21;96.88
61018;BME280;48171;51.550;5.434;2022-12-18T09:23:54;102650.25;;;-5.11;97.03
61018;BME280;48171;51.550;5.434;2022-12-18T09:26:21;102646.13;;;-5.09;96.92
61018;BME280;48171;51.550;5.434;2022-12-18T09:28:47;102629.09;;;-5.07;96.74
61018;BME280;48171;51.550;5.434;2022-12-18T09:31:13;102633.34;;;-4.97;96.87
61018;BME280;48171;51.550;5.434;2022-12-18T09:33:38;102623.97;;;-4.96;97.12
61018;BME280;48171;51.550;5.434;2022-12-18T09:36:05;102615.72;;;-4.92;97.05
61018;BME280;48171;51.550;5.434;2022-12-18T09:38:32;102608.22;;;-4.89;97.03
61018;BME280;48171;51.550;5.434;2022-12-18T09:41:00;102606.16;;;-4.83;96.95
61018;BME280;48171;51.550;5.434;2022-12-18T09:43:35;102609.25;;;-4.77;96.94
61018;BME280;48171;51.550;5.434;2022-12-18T09:46:07;102598.31;;;-4.74;96.85
61018;BME280;48171;51.550;5.434;2022-12-18T09:48:41;102598.81;;;-4.68;97.12
61018;BME280;48171;51.550;5.434;2022-12-18T09:51:14;102592.09;;;-4.66;96.78
61018;BME280;48171;51.550;5.434;2022-12-18T09:53:41;102592.09;;;-4.56;97.12
61018;BME280;48171;51.550;5.434;2022-12-18T09:56:14;102566.44;;;-4.54;97.03
61018;BME280;48171;51.550;5.434;2022-12-18T09:58:45;102561.91;;;-4.57;97.16
61018;BME280;48171;51.550;5.434;2022-12-18T10:01:21;102578.13;;;-4.48;97.26
61018;BME280;48171;51.550;5.434;2022-12-18T10:03:47;102590.50;;;-4.44;97.04
61018;BME280;48171;51.550;5.434;2022-12-18T10:06:36;102591.13;;;-4.36;97.15
61018;BME280;48171;51.550;5.434;2022-12-18T10:09:27;102591.63;;;-4.30;97.34
61018;BME280;48171;51.550;5.434;2022-12-18T10:12:08;102590.31;;;-4.25;97.07
61018;BME280;48171;51.550;5.434;2022-12-18T10:14:57;102585.66;;;-4.18;97.39
61018;BME280;48171;51.550;5.434;2022-12-18T10:17:55;102585.25;;;-4.13;97.13
61018;BME280;48171;51.550;5.434;2022-12-18T10:23:51;102593.22;;;-3.99;97.39
61018;BME280;48171;51.550;5.434;2022-12-18T10:26:03;102567.94;;;-4.04;97.39
61018;BME280;48171;51.550;5.434;2022-12-18T10:28:30;102577.66;;;-3.89;97.30
61018;BME280;48171;51.550;5.434;2022-12-18T10:30:56;102575.44;;;-3.85;97.27
61018;BME280;48171;51.550;5.434;2022-12-18T10:33:23;102568.84;;;-3.81;97.02
61018;BME280;48171;51.550;5.434;2022-12-18T10:35:53;102546.28;;;-3.84;97.37
61018;BME280;48171;51.550;5.434;2022-12-18T10:41:02;102547.59;;;-3.67;96.91
61018;BME280;48171;51.550;5.434;2022-12-18T10:43:33;102546.16;;;-3.63;96.80
61018;BME280;48171;51.550;5.434;2022-12-18T10:48:31;102519.66;;;-3.60;96.92
61018;BME280;48171;51.550;5.434;2022-12-18T10:50:58;102535.19;;;-3.49;96.96
61018;BME280;48171;51.550;5.434;2022-12-18T10:53:26;102531.28;;;-3.44;97.45
61018;BME280;48171;51.550;5.434;2022-12-18T10:55:54;102522.63;;;-3.44;96.79
61018;BME280;48171;51.550;5.434;2022-12-18T10:58:24;102520.63;;;-3.36;96.54
61018;BME280;48171;51.550;5.434;2022-12-18T11:01:10;102517.63;;;-3.31;96.45
61018;BME280;48171;51.550;5.434;2022-12-18T11:06:14;102493.69;;;-3.28;96.79
61018;BME280;48171;51.550;5.434;2022-12-18T11:08:42;102492.78;;;-3.29;97.03
61018;BME280;48171;51.550;5.434;2022-12-18T11:11:19;102484.66;;;-3.33;96.75
61018;BME280;48171;51.550;5.434;2022-12-18T11:13:58;102499.78;;;-3.16;96.92
61018;BME280;48171;51.550;5.434;2022-12-18T11:16:26;102499.09;;;-3.13;96.68
61018;BME280;48171;51.550;5.434;2022-12-18T11:18:52;102513.41;;;-3.07;96.45
61018;BME280;48171;51.550;5.434;2022-12-18T11:21:18;102509.47;;;-3.02;96.23
61018;BME280;48171;51.550;5.434;2022-12-18T11:23:50;102504.53;;;-2.98;96.24
61018;BME280;48171;51.550;5.434;2022-12-18T11:26:16;102483.19;;;-2.96;96.37
61018;BME280;48171;51.550;5.434;2022-12-18T11:29:08;102489.03;;;-2.87;96.01
61018;BME280;48171;51.550;5.434;2022-12-18T11:31:34;102484.88;;;-2.85;95.58
61018;BME280;48171;51.550;5.434;2022-12-18T11:34:01;102487.78;;;-2.80;95.56
61018;BME280;48171;51.550;5.434;2022-12-18T11:36:37;102481.25;;;-2.75;95.79
61018;BME280;48171;51.550;5.434;2022-12-18T11:39:14;102482.28;;;-2.73;95.53
61018;BME280;48171;51.550;5.434;2022-12-18T11:41:54;102471.91;;;-2.73;95.35
61018;BME280;48171;51.550;5.434;2022-12-18T11:44:49;102481.06;;;-2.66;95.14
61018;BME280;48171;51.550;5.434;2022-12-18T11:47:31;102481.50;;;-2.60;95.08
61018;BME280;48171;51.550;5.434;2022-12-18T11:50:11;102479.22;;;-2.55;95.05
61018;BME280;48171;51.550;5.434;2022-12-18T11:52:40;102472.38;;;-2.55;94.82
61018;BME280;48171;51.550;5.434;2022-12-18T11:55:36;102464.16;;;-2.49;94.49
61018;BME280;48171;51.550;5.434;2022-12-18T12:00:39;102449.19;;;-2.53;94.40
61018;BME280;48171;51.550;5.434;2022-12-18T12:08:55;102450.31;;;-2.38;94.14
61018;BME280;48171;51.550;5.434;2022-12-18T12:14:16;102425.63;;;-2.33;93.95
61018;BME280;48171;51.550;5.434;2022-12-18T12:16:57;102423.59;;;-2.25;93.99
61018;BME280;48171;51.550;5.434;2022-12-18T12:22:15;102426.41;;;-2.22;93.82
61018;BME280;48171;51.550;5.434;2022-12-18T12:24:52;102428.63;;;-2.15;93.65
61018;BME280;48171;51.550;5.434;2022-12-18T12:36:18;102406.97;;;-2.04;93.16
61018;BME280;48171;51.550;5.434;2022-12-18T12:38:52;102398.28;;;-2.04;93.22
61018;BME280;48171;51.550;5.434;2022-12-18T12:41:24;102391.63;;;-2.01;92.72
61018;BME280;48171;51.550;5.434;2022-12-18T12:44:15;102379.56;;;-2.00;93.16
61018;BME280;48171;51.550;5.434;2022-12-18T12:46:43;102375.31;;;-1.99;92.89
61018;BME280;48171;51.550;5.434;2022-12-18T12:49:13;102382.69;;;-1.92;92.54
61018;BME280;48171;51.550;5.434;2022-12-18T12:51:41;102366.16;;;-1.94;92.22
61018;BME280;48171;51.550;5.434;2022-12-18T12:54:16;102368.28;;;-1.89;92.66
61018;BME280;48171;51.550;5.434;2022-12-18T12:56:52;102346.25;;;-1.95;92.29
61018;BME280;48171;51.550;5.434;2022-12-18T12:59:45;102342.19;;;-1.92;92.17
61018;BME280;48171;51.550;5.434;2022-12-18T13:05:00;102361.63;;;-1.85;91.77
61018;BME280;48171;51.550;5.434;2022-12-18T13:07:40;102370.56;;;-1.80;91.60
61018;BME280;48171;51.550;5.434;2022-12-18T13:15:38;102350.19;;;-1.75;91.04
61018;BME280;48171;51.550;5.434;2022-12-18T13:20:34;102343.31;;;-1.75;90.91
61018;BME280;48171;51.550;5.434;2022-12-18T13:23:18;102335.41;;;-1.76;90.92
61018;BME280;48171;51.550;5.434;2022-12-18T13:25:44;102342.50;;;-1.74;90.51
61018;BME280;48171;51.550;5.434;2022-12-18T13:28:14;102349.78;;;-1.68;90.31
61018;BME280;48171;51.550;5.434;2022-12-18T13:31:02;102354.97;;;-1.68;90.31
61018;BME280;48171;51.550;5.434;2022-12-18T13:36:10;102347.31;;;-1.67;90.32
61018;BME280;48171;51.550;5.434;2022-12-18T13:38:38;102342.41;;;-1.62;89.84
61018;BME280;48171;51.550;5.434;2022-12-18T13:41:26;102340.63;;;-1.63;90.04
61018;BME280;48171;51.550;5.434;2022-12-18T13:44:07;102339.03;;;-1.61;90.36
61018;BME280;48171;51.550;5.434;2022-12-18T13:46:48;102332.38;;;-1.57;90.04
61018;BME280;48171;51.550;5.434;2022-12-18T13:49:28;102322.91;;;-1.57;90.13
61018;BME280;48171;51.550;5.434;2022-12-18T13:51:56;102315.91;;;-1.58;89.75
61018;BME280;48171;51.550;5.434;2022-12-18T13:54:36;102316.84;;;-1.57;89.58
61018;BME280;48171;51.550;5.434;2022-12-18T13:57:02;102316.22;;;-1.53;90.00
61018;BME280;48171;51.550;5.434;2022-12-18T13:59:38;102306.66;;;-1.54;89.40
61018;BME280;48171;51.550;5.434;2022-12-18T14:02:14;102319.00;;;-1.50;89.16